Lincoln City, Oregon
Current Conditions -  °F | °C
As of 6:55 AM on Wednesday 22 Oct 2014 (Local Time) from KONP Reporting Station
Light Rain Light Rain  
Wind Chill: 59°   Ceiling: 1100
Heat Index: 59°   Visibility: 4mi
Dew Point: 55°   Wind: 22mph
Humidity: 88%   Direction: 190°S
Pressure: 29.8"   Gusts: 32mph
Location:  44.93°N, 124.01°W
Report Text: KONP 221355Z AUTO 19019G28KT 4SM -RA BKN011 BKN014 OVC020 15/13 A2980 RMK AO2 P0003
Loading
Personal Weather Stations






























Interactive Weather Map New forecast layout! Learn more

10-Day Weather Forecast

Advertisements
Track Severe Weather on mobile